createdAt,value
2018-09-29T00:01:16.064Z,98.80
2018-09-29T00:03:45.275Z,98.90
2018-09-29T00:06:14.462Z,99.00
2018-09-29T00:08:43.646Z,99.00
2018-09-29T00:11:12.865Z,98.80
2018-09-29T00:13:42.159Z,99.00
2018-09-29T00:16:11.561Z,99.10
2018-09-29T00:18:40.754Z,99.20
2018-09-29T00:21:10.003Z,99.40
2018-09-29T00:23:39.215Z,99.60
2018-09-29T00:26:08.523Z,99.50
2018-09-29T00:28:37.718Z,99.50
2018-09-29T00:31:06.970Z,99.50
2018-09-29T00:33:37.034Z,99.40
2018-09-29T00:36:06.317Z,99.40
2018-09-29T00:38:35.783Z,99.40
2018-09-29T00:41:05.039Z,99.20
2018-09-29T00:43:34.242Z,99.10
2018-09-29T00:46:03.536Z,99.10
2018-09-29T00:48:32.754Z,99.30
2018-09-29T00:51:01.973Z,99.10
2018-09-29T00:53:31.176Z,99.00
2018-09-29T00:56:00.454Z,99.30
2018-09-29T00:58:29.675Z,99.40
2018-09-29T01:00:58.917Z,99.30
2018-09-29T01:03:28.107Z,99.40
2018-09-29T01:05:57.368Z,99.40
2018-09-29T01:08:26.551Z,99.40
2018-09-29T01:10:55.766Z,99.40
2018-09-29T01:13:24.936Z,99.40
2018-09-29T01:15:54.159Z,99.40
2018-09-29T01:18:23.355Z,99.50
2018-09-29T01:20:52.551Z,99.60
2018-09-29T01:23:21.771Z,99.50
2018-09-29T01:25:51.003Z,99.60
2018-09-29T01:28:20.212Z,99.50
2018-09-29T01:30:49.422Z,99.40
2018-09-29T01:33:18.642Z,99.40
2018-09-29T01:35:47.906Z,99.30
2018-09-29T01:38:17.178Z,99.40
2018-09-29T01:40:46.432Z,99.40
2018-09-29T01:43:15.629Z,99.50
2018-09-29T01:45:44.842Z,99.40
2018-09-29T01:48:14.023Z,99.60
2018-09-29T01:50:43.235Z,99.50
2018-09-29T01:53:12.468Z,99.60
2018-09-29T01:55:41.719Z,99.60
2018-09-29T01:58:10.933Z,99.90
2018-09-29T02:00:40.160Z,99.70
2018-09-29T02:03:10.263Z,99.80
2018-09-29T02:05:41.171Z,99.60
2018-09-29T02:08:10.432Z,99.90
2018-09-29T02:10:39.657Z,99.90
2018-09-29T02:13:08.878Z,99.80
2018-09-29T02:15:38.179Z,99.90
2018-09-29T02:18:07.441Z,99.90
2018-09-29T02:20:36.655Z,99.90
2018-09-29T02:23:05.862Z,99.90
2018-09-29T02:25:35.078Z,99.90
2018-09-29T02:28:04.325Z,99.90
2018-09-29T02:30:33.858Z,99.90
2018-09-29T02:33:03.181Z,99.90
2018-09-29T02:35:32.391Z,99.90
2018-09-29T02:38:01.648Z,99.90
2018-09-29T02:40:30.909Z,99.90
2018-09-29T02:43:00.190Z,99.90
2018-09-29T02:45:29.711Z,99.90
2018-09-29T02:47:58.950Z,99.90
2018-09-29T02:50:28.174Z,99.90
2018-09-29T02:52:57.378Z,99.90
2018-09-29T02:55:26.609Z,99.90
2018-09-29T02:57:55.907Z,99.90
2018-09-29T03:00:25.304Z,99.90
2018-09-29T03:02:54.625Z,99.90
2018-09-29T03:05:23.905Z,99.90
2018-09-29T03:07:53.154Z,99.90
2018-09-29T03:10:22.331Z,99.90
2018-09-29T03:12:51.560Z,99.90
2018-09-29T03:15:20.771Z,99.90
2018-09-29T03:17:50.075Z,99.90
2018-09-29T03:20:19.307Z,99.90
2018-09-29T03:22:48.534Z,99.90
2018-09-29T03:25:17.724Z,99.90
2018-09-29T03:27:46.945Z,99.90
2018-09-29T03:30:16.171Z,99.90
2018-09-29T03:32:45.451Z,99.80
2018-09-29T03:35:14.653Z,99.90
2018-09-29T03:37:43.851Z,99.90
2018-09-29T03:40:13.131Z,99.90
2018-09-29T03:42:42.427Z,99.90
2018-09-29T03:45:11.610Z,99.90
2018-09-29T03:47:40.830Z,99.90
2018-09-29T03:50:10.030Z,99.90
2018-09-29T03:52:39.242Z,99.90
2018-09-29T03:55:08.428Z,99.90
2018-09-29T03:57:37.672Z,99.90
2018-09-29T04:00:06.875Z,99.90
2018-09-29T04:02:36.107Z,99.90
2018-09-29T04:05:05.583Z,99.90
2018-09-29T04:07:34.802Z,99.90
2018-09-29T04:10:04.080Z,99.90
2018-09-29T04:12:33.339Z,99.90
2018-09-29T04:15:02.542Z,99.90
2018-09-29T04:17:31.746Z,99.90
2018-09-29T04:20:01.005Z,99.90
2018-09-29T04:22:30.218Z,99.90
2018-09-29T04:24:59.414Z,99.90
2018-09-29T04:27:28.649Z,99.90
2018-09-29T04:29:57.860Z,99.90
2018-09-29T04:32:27.204Z,99.90
2018-09-29T04:34:56.395Z,99.90
2018-09-29T04:37:25.616Z,99.90
2018-09-29T04:39:54.828Z,99.90
2018-09-29T04:42:24.068Z,99.90
2018-09-29T04:44:53.254Z,99.90
2018-09-29T04:47:22.472Z,99.90
2018-09-29T04:49:51.731Z,99.90
2018-09-29T04:52:20.982Z,99.90
2018-09-29T04:54:50.170Z,99.90
2018-09-29T04:57:19.389Z,99.90
2018-09-29T04:59:48.599Z,99.90
2018-09-29T05:02:17.794Z,99.90
2018-09-29T05:04:47.006Z,99.90
2018-09-29T05:07:16.220Z,99.90
2018-09-29T05:09:45.457Z,99.90
2018-09-29T05:12:14.663Z,99.90
2018-09-29T05:14:43.871Z,99.90
2018-09-29T05:17:13.077Z,99.90
2018-09-29T05:19:42.294Z,99.90
2018-09-29T05:22:11.542Z,99.90
2018-09-29T05:24:40.917Z,99.90
2018-09-29T05:27:10.239Z,99.90
2018-09-29T05:29:39.473Z,99.90
2018-09-29T05:32:08.899Z,99.90
2018-09-29T05:34:38.090Z,99.90
2018-09-29T05:37:07.595Z,99.90
2018-09-29T05:39:36.833Z,99.90
2018-09-29T05:42:06.078Z,99.90
2018-09-29T05:44:35.324Z,99.90
2018-09-29T05:47:04.526Z,99.90
2018-09-29T05:49:33.802Z,99.90
2018-09-29T05:52:03.312Z,99.90
2018-09-29T05:54:32.712Z,99.90
2018-09-29T05:57:01.926Z,99.90
2018-09-29T05:59:31.106Z,99.90
2018-09-29T06:02:00.310Z,99.90
2018-09-29T06:04:30.003Z,99.90
2018-09-29T06:06:59.227Z,99.90
2018-09-29T06:09:28.420Z,99.90
2018-09-29T06:11:57.596Z,99.90
2018-09-29T06:14:26.797Z,99.90
2018-09-29T06:16:56.063Z,99.90
2018-09-29T06:19:25.265Z,99.90
2018-09-29T06:21:54.471Z,99.90
2018-09-29T06:24:23.695Z,99.90
2018-09-29T06:26:52.894Z,99.90
2018-09-29T06:29:22.094Z,99.90
2018-09-29T06:31:51.326Z,99.90
2018-09-29T06:34:20.551Z,99.90
2018-09-29T06:36:49.768Z,99.90
2018-09-29T06:39:19.022Z,99.90
2018-09-29T06:41:48.226Z,99.90
2018-09-29T06:44:17.415Z,99.90
2018-09-29T06:46:46.579Z,99.90
2018-09-29T06:49:15.775Z,99.90
2018-09-29T06:51:44.961Z,99.90
2018-09-29T06:54:14.267Z,99.90
2018-09-29T06:56:43.481Z,99.90
2018-09-29T06:59:12.688Z,99.90
2018-09-29T07:01:41.921Z,99.90
2018-09-29T07:04:11.114Z,99.90
2018-09-29T07:06:40.313Z,99.90
2018-09-29T07:09:11.065Z,99.90
2018-09-29T07:11:40.310Z,99.90
2018-09-29T07:14:09.664Z,99.90
2018-09-29T07:16:38.890Z,99.90
2018-09-29T07:19:08.075Z,99.90
2018-09-29T07:21:37.347Z,99.90
2018-09-29T07:24:06.552Z,99.90
2018-09-29T07:26:35.859Z,99.90
2018-09-29T07:29:05.124Z,99.90
2018-09-29T07:31:34.401Z,99.90
2018-09-29T07:34:03.614Z,99.90
2018-09-29T07:36:32.808Z,99.90
2018-09-29T07:39:02.045Z,99.90
2018-09-29T07:41:31.254Z,99.90
2018-09-29T07:44:00.460Z,99.90
2018-09-29T07:46:29.679Z,99.90
2018-09-29T07:48:58.924Z,99.90
2018-09-29T07:51:28.165Z,99.90
2018-09-29T07:53:57.347Z,99.90
2018-09-29T07:56:26.586Z,99.90
2018-09-29T07:58:55.802Z,99.90
2018-09-29T08:01:25.305Z,99.90
2018-09-29T08:03:54.491Z,99.90
2018-09-29T08:06:23.813Z,99.90
2018-09-29T08:08:52.999Z,99.90
2018-09-29T08:11:22.198Z,99.90
2018-09-29T08:13:51.381Z,99.90
2018-09-29T08:16:20.599Z,99.90
2018-09-29T08:18:49.771Z,99.90
2018-09-29T08:21:18.988Z,99.90
2018-09-29T08:23:48.266Z,99.90
2018-09-29T08:26:17.519Z,99.90
2018-09-29T08:28:46.703Z,99.90
2018-09-29T08:31:15.902Z,99.90
2018-09-29T08:33:45.135Z,99.90
2018-09-29T08:36:14.330Z,99.90
2018-09-29T08:38:43.504Z,99.90
2018-09-29T08:41:12.744Z,99.90
2018-09-29T08:43:41.933Z,99.90
2018-09-29T08:46:11.180Z,99.70
2018-09-29T08:48:40.352Z,99.60
2018-09-29T08:51:09.580Z,99.50
2018-09-29T08:53:38.863Z,99.40
2018-09-29T08:56:08.058Z,99.40
2018-09-29T08:58:37.233Z,99.40
2018-09-29T09:01:06.535Z,99.50
2018-09-29T09:03:35.755Z,99.30
2018-09-29T09:06:05.043Z,99.10
2018-09-29T09:08:34.241Z,98.50
2018-09-29T09:11:03.471Z,98.30
2018-09-29T09:13:32.666Z,98.10
2018-09-29T09:16:01.919Z,97.70
2018-09-29T09:18:31.263Z,97.60
2018-09-29T09:21:00.475Z,97.80
2018-09-29T09:23:29.848Z,97.70
2018-09-29T09:25:59.279Z,97.00
2018-09-29T09:28:28.500Z,96.90
2018-09-29T09:30:57.699Z,96.40
2018-09-29T09:33:26.880Z,96.90
2018-09-29T09:35:56.306Z,96.40
2018-09-29T09:38:26.558Z,97.00
2018-09-29T09:40:55.780Z,96.50
2018-09-29T09:43:25.019Z,96.40
2018-09-29T09:45:54.234Z,95.60
2018-09-29T09:48:23.465Z,95.40
2018-09-29T09:50:52.751Z,95.40
2018-09-29T09:53:21.935Z,95.20
2018-09-29T09:55:51.261Z,95.20
2018-09-29T09:58:20.406Z,95.40
2018-09-29T10:00:54.987Z,95.20
2018-09-29T10:03:28.757Z,95.00
2018-09-29T10:05:58.102Z,94.60
2018-09-29T10:08:27.503Z,93.40
2018-09-29T10:10:56.707Z,93.20
2018-09-29T10:13:25.923Z,93.40
2018-09-29T10:15:55.224Z,92.80
2018-09-29T10:18:24.468Z,93.20
2018-09-29T10:20:53.763Z,92.60
2018-09-29T10:23:22.987Z,92.60
2018-09-29T10:25:52.254Z,91.70
2018-09-29T10:28:21.499Z,91.40
2018-09-29T10:30:50.766Z,91.20
2018-09-29T10:33:19.986Z,91.40
2018-09-29T10:35:49.267Z,91.40
2018-09-29T10:38:18.605Z,91.00
2018-09-29T10:40:47.848Z,91.10
2018-09-29T10:43:17.058Z,90.70
2018-09-29T10:45:46.272Z,91.40
2018-09-29T10:48:15.605Z,91.00
2018-09-29T10:50:44.804Z,90.60
2018-09-29T10:53:14.027Z,90.50
2018-09-29T10:55:43.244Z,90.20
2018-09-29T10:58:12.505Z,90.00
2018-09-29T11:00:41.722Z,88.80
2018-09-29T11:03:10.959Z,87.50
2018-09-29T11:05:40.307Z,88.10
2018-09-29T11:08:09.714Z,88.00
2018-09-29T11:10:38.951Z,87.70
2018-09-29T11:13:08.259Z,87.20
2018-09-29T11:15:37.497Z,86.90
2018-09-29T11:18:06.828Z,86.80
2018-09-29T11:20:36.001Z,87.20
2018-09-29T11:23:05.223Z,86.70
2018-09-29T11:25:34.453Z,85.60
2018-09-29T11:28:03.746Z,85.40
2018-09-29T11:30:32.936Z,83.90
2018-09-29T11:33:02.306Z,82.20
2018-09-29T11:35:31.596Z,82.20
2018-09-29T11:38:00.779Z,81.00
2018-09-29T11:40:30.443Z,82.20
2018-09-29T11:42:59.683Z,79.90
2018-09-29T11:45:28.930Z,78.60
2018-09-29T11:47:58.168Z,78.20
2018-09-29T11:50:27.504Z,76.80
2018-09-29T11:52:56.742Z,76.00
2018-09-29T11:55:25.910Z,74.20
2018-09-29T11:57:55.095Z,72.80
2018-09-29T12:00:24.266Z,73.40
2018-09-29T12:02:53.879Z,73.70
2018-09-29T12:05:23.257Z,73.10
2018-09-29T12:07:52.531Z,72.30
2018-09-29T12:10:21.770Z,71.10
2018-09-29T12:12:51.093Z,69.20
2018-09-29T12:15:20.276Z,68.40
2018-09-29T12:17:49.498Z,67.50
2018-09-29T12:20:18.683Z,67.10
2018-09-29T12:22:47.906Z,65.90
2018-09-29T12:25:17.339Z,65.30
2018-09-29T12:27:46.658Z,65.30
2018-09-29T12:30:15.881Z,64.00
2018-09-29T12:32:45.101Z,62.80
2018-09-29T12:35:14.314Z,63.60
2018-09-29T12:37:43.595Z,63.10
2018-09-29T12:40:12.701Z,63.40
2018-09-29T12:42:41.969Z,63.80
2018-09-29T12:45:11.168Z,61.80
2018-09-29T12:47:40.437Z,61.20
2018-09-29T12:50:09.612Z,62.30
2018-09-29T12:52:38.862Z,62.40
2018-09-29T12:55:08.036Z,61.90
2018-09-29T12:57:37.230Z,60.90
2018-09-29T13:00:07.018Z,59.30
2018-09-29T13:02:36.232Z,60.90
2018-09-29T13:05:05.524Z,60.40
2018-09-29T13:07:34.799Z,58.50
2018-09-29T13:10:04.047Z,58.60
2018-09-29T13:12:33.279Z,57.80
2018-09-29T13:15:02.485Z,57.90
2018-09-29T13:17:31.728Z,57.50
2018-09-29T13:20:00.925Z,57.80
2018-09-29T13:22:30.134Z,57.80
2018-09-29T13:24:59.323Z,57.30
2018-09-29T13:27:28.840Z,57.20
2018-09-29T13:29:58.135Z,57.80
2018-09-29T13:32:27.438Z,58.80
2018-09-29T13:34:56.688Z,58.40
2018-09-29T13:37:25.927Z,58.60
2018-09-29T13:39:55.145Z,57.50
2018-09-29T13:42:24.422Z,58.20
2018-09-29T13:44:53.931Z,58.00
2018-09-29T13:47:23.335Z,58.50
2018-09-29T13:49:52.555Z,59.00
2018-09-29T13:52:21.766Z,58.30
2018-09-29T13:54:50.981Z,58.60
2018-09-29T13:57:20.193Z,58.90
2018-09-29T13:59:49.421Z,59.10
2018-09-29T14:02:19.563Z,59.50
2018-09-29T14:04:48.874Z,59.60
2018-09-29T14:07:18.114Z,60.20
2018-09-29T14:09:47.390Z,60.70
2018-09-29T14:12:16.723Z,60.40
2018-09-29T14:14:46.270Z,60.20
2018-09-29T14:17:15.463Z,60.40
2018-09-29T14:19:44.709Z,60.90
2018-09-29T14:22:13.907Z,61.50
2018-09-29T14:24:43.127Z,61.60
2018-09-29T14:27:12.406Z,61.70
2018-09-29T14:29:41.627Z,61.80
2018-09-29T14:32:10.826Z,62.40
2018-09-29T14:34:40.066Z,62.70
2018-09-29T14:37:09.346Z,62.80
2018-09-29T14:39:38.717Z,62.80
2018-09-29T14:42:08.028Z,63.00
2018-09-29T14:44:37.251Z,63.30
2018-09-29T14:47:06.582Z,63.30
2018-09-29T14:49:35.799Z,63.30
2018-09-29T14:52:05.027Z,63.50
2018-09-29T14:54:34.341Z,64.50
2018-09-29T14:57:03.521Z,63.60
2018-09-29T14:59:32.786Z,63.80
2018-09-29T15:02:02.035Z,64.10
2018-09-29T15:04:31.252Z,64.10
2018-09-29T15:07:00.446Z,64.10
2018-09-29T15:09:29.653Z,64.10
2018-09-29T15:11:58.853Z,64.40
2018-09-29T15:14:28.054Z,64.30
2018-09-29T15:16:57.308Z,64.60
2018-09-29T15:19:26.517Z,64.90
2018-09-29T15:21:55.806Z,65.10
2018-09-29T15:24:25.033Z,64.70
2018-09-29T15:26:54.201Z,65.30
2018-09-29T15:29:23.409Z,65.90
2018-09-29T15:31:52.675Z,66.20
2018-09-29T15:34:21.936Z,66.60
2018-09-29T15:36:51.217Z,67.20
2018-09-29T15:39:20.498Z,67.40
2018-09-29T15:41:49.699Z,67.60
2018-09-29T15:44:18.925Z,68.20
2018-09-29T15:46:48.128Z,68.20
2018-09-29T15:49:17.368Z,68.40
2018-09-29T15:51:46.620Z,68.40
2018-09-29T15:54:15.841Z,68.20
2018-09-29T15:56:45.111Z,68.40
2018-09-29T15:59:14.363Z,68.90
2018-09-29T16:01:43.588Z,68.90
2018-09-29T16:04:12.815Z,69.10
2018-09-29T16:06:42.047Z,69.20
2018-09-29T16:09:11.463Z,69.50
2018-09-29T16:11:41.075Z,69.70
2018-09-29T16:14:10.408Z,70.00
2018-09-29T16:16:39.602Z,70.20
2018-09-29T16:19:08.812Z,70.40
2018-09-29T16:21:38.069Z,70.70
2018-09-29T16:24:07.251Z,71.00
2018-09-29T16:26:36.478Z,71.30
2018-09-29T16:29:05.688Z,71.80
2018-09-29T16:31:34.942Z,72.00
2018-09-29T16:34:04.149Z,72.00
2018-09-29T16:36:33.345Z,72.50
2018-09-29T16:39:02.596Z,72.70
2018-09-29T16:41:31.847Z,73.30
2018-09-29T16:44:01.172Z,73.30
2018-09-29T16:46:30.348Z,73.70
2018-09-29T16:48:59.549Z,74.00
2018-09-29T16:51:28.764Z,74.40
2018-09-29T16:53:57.974Z,75.00
2018-09-29T16:56:27.180Z,75.30
2018-09-29T16:58:56.382Z,75.30
2018-09-29T17:01:25.580Z,75.70
2018-09-29T17:03:54.884Z,76.10
2018-09-29T17:06:24.057Z,76.40
2018-09-29T17:08:53.273Z,77.00
2018-09-29T17:11:22.478Z,77.00
2018-09-29T17:13:51.668Z,77.20
2018-09-29T17:16:20.922Z,77.60
2018-09-29T17:18:50.161Z,78.00
2018-09-29T17:21:20.074Z,78.00
2018-09-29T17:23:49.234Z,78.00
2018-09-29T17:26:18.463Z,78.40
2018-09-29T17:28:47.639Z,78.20
2018-09-29T17:31:17.606Z,78.70
2018-09-29T17:33:46.810Z,79.00
2018-09-29T17:36:16.061Z,79.40
2018-09-29T17:38:45.239Z,79.80
2018-09-29T17:41:14.833Z,81.40
2018-09-29T17:43:46.233Z,81.30
2018-09-29T17:46:15.466Z,81.70
2018-09-29T17:48:44.695Z,82.00
2018-09-29T17:51:13.932Z,82.20
2018-09-29T17:53:43.179Z,82.60
2018-09-29T17:56:12.397Z,83.70
2018-09-29T17:58:41.629Z,83.30
2018-09-29T18:01:10.882Z,83.60
2018-09-29T18:03:40.127Z,85.10
2018-09-29T18:06:09.385Z,85.80
2018-09-29T18:08:38.682Z,85.90
2018-09-29T18:11:08.100Z,85.70
2018-09-29T18:13:37.432Z,86.50
2018-09-29T18:16:06.794Z,86.70
2018-09-29T18:18:36.213Z,88.00
2018-09-29T18:21:05.426Z,87.90
2018-09-29T18:23:34.656Z,87.80
2018-09-29T18:26:03.926Z,88.50
2018-09-29T18:28:33.179Z,89.80
2018-09-29T18:31:02.990Z,90.60
2018-09-29T18:33:32.266Z,91.40
2018-09-29T18:36:01.528Z,91.30
2018-09-29T18:38:30.787Z,91.40
2018-09-29T18:41:00.038Z,91.30
2018-09-29T18:43:29.244Z,91.40
2018-09-29T18:45:58.481Z,91.60
2018-09-29T18:48:27.744Z,91.80
2018-09-29T18:50:56.964Z,92.30
2018-09-29T18:53:26.172Z,92.80
2018-09-29T18:55:55.397Z,93.00
2018-09-29T18:58:24.619Z,92.90
2018-09-29T19:00:53.844Z,93.60
2018-09-29T19:03:23.062Z,93.50
2018-09-29T19:05:52.298Z,93.80
2018-09-29T19:08:22.256Z,93.90
2018-09-29T19:10:51.459Z,94.10
2018-09-29T19:13:20.670Z,94.10
2018-09-29T19:15:56.015Z,94.00
2018-09-29T19:18:25.226Z,94.00
2018-09-29T19:20:54.466Z,94.00
2018-09-29T19:23:24.293Z,94.20
2018-09-29T19:25:53.524Z,94.40
2018-09-29T19:28:22.718Z,94.70
2018-09-29T19:30:51.927Z,94.80
2018-09-29T19:33:21.122Z,94.80
2018-09-29T19:35:52.640Z,94.90
2018-09-29T19:38:21.827Z,95.40
2018-09-29T19:40:51.027Z,95.30
2018-09-29T19:43:21.375Z,95.30
2018-09-29T19:45:50.753Z,95.50
2018-09-29T19:48:20.920Z,95.30
2018-09-29T19:50:57.992Z,95.30
2018-09-29T19:53:27.170Z,95.10
2018-09-29T19:56:05.050Z,95.40
2018-09-29T19:58:34.504Z,95.70
2018-09-29T20:01:04.680Z,95.50
2018-09-29T20:03:33.960Z,95.80
2018-09-29T20:06:03.188Z,95.90
2018-09-29T20:08:32.423Z,96.20
2018-09-29T20:11:01.637Z,96.40
2018-09-29T20:13:30.934Z,96.60
2018-09-29T20:16:00.174Z,96.70
2018-09-29T20:18:29.391Z,96.90
2018-09-29T20:20:58.621Z,97.10
2018-09-29T20:23:30.678Z,96.80
2018-09-29T20:25:59.894Z,97.20
2018-09-29T20:28:29.073Z,97.10
2018-09-29T20:30:58.946Z,96.80
2018-09-29T20:33:28.127Z,96.80
2018-09-29T20:36:00.717Z,97.00
2018-09-29T20:38:29.903Z,97.30
2018-09-29T20:40:59.161Z,97.60
2018-09-29T20:43:28.346Z,97.90
2018-09-29T20:45:58.610Z,97.90
2018-09-29T20:48:27.855Z,97.70
2018-09-29T20:51:00.915Z,97.90
2018-09-29T20:53:30.093Z,97.80
2018-09-29T20:55:59.307Z,97.90
2018-09-29T20:58:28.491Z,98.10
2018-09-29T21:00:57.701Z,98.10
2018-09-29T21:03:26.948Z,98.10
2018-09-29T21:05:56.187Z,98.40
2018-09-29T21:08:25.356Z,98.30
2018-09-29T21:10:54.590Z,97.90
2018-09-29T21:13:23.947Z,98.30
2018-09-29T21:15:53.141Z,98.60
2018-09-29T21:18:22.378Z,98.60
2018-09-29T21:20:51.561Z,98.60
2018-09-29T21:23:23.755Z,98.70
2018-09-29T21:25:52.938Z,98.60
2018-09-29T21:28:22.155Z,98.50
2018-09-29T21:30:51.399Z,98.40
2018-09-29T21:33:20.607Z,98.30
2018-09-29T21:35:49.810Z,98.40
2018-09-29T21:38:19.039Z,98.50
2018-09-29T21:40:48.242Z,98.40
2018-09-29T21:43:24.098Z,98.40
2018-09-29T21:45:53.325Z,98.40
2018-09-29T21:48:22.558Z,98.80
2018-09-29T21:50:51.742Z,98.60
2018-09-29T21:53:21.047Z,98.40
2018-09-29T21:55:50.245Z,98.80
2018-09-29T21:58:19.471Z,98.70
2018-09-29T22:00:48.642Z,98.70
2018-09-29T22:03:17.983Z,98.60
2018-09-29T22:05:47.210Z,98.60
2018-09-29T22:08:16.409Z,98.80
2018-09-29T22:10:45.614Z,99.00
2018-09-29T22:13:14.832Z,99.20
2018-09-29T22:15:44.032Z,99.40
2018-09-29T22:18:13.234Z,99.40
2018-09-29T22:20:42.435Z,99.50
2018-09-29T22:23:11.621Z,99.80
2018-09-29T22:25:40.839Z,99.90
2018-09-29T22:28:10.039Z,99.90
2018-09-29T22:30:39.297Z,99.90
2018-09-29T22:33:08.653Z,99.90
2018-09-29T22:35:37.824Z,99.90
2018-09-29T22:38:07.497Z,99.90
2018-09-29T22:40:36.704Z,99.90
2018-09-29T22:43:05.967Z,99.90
2018-09-29T22:45:35.168Z,99.80
2018-09-29T22:48:04.382Z,99.90
2018-09-29T22:50:33.603Z,99.30
2018-09-29T22:53:02.806Z,99.10
2018-09-29T22:55:31.989Z,99.20
2018-09-29T22:58:01.210Z,99.00
2018-09-29T23:00:30.421Z,98.90
2018-09-29T23:02:59.639Z,99.30
2018-09-29T23:05:28.825Z,99.40
2018-09-29T23:07:58.026Z,99.40
2018-09-29T23:10:27.238Z,99.20
2018-09-29T23:12:56.429Z,99.40
2018-09-29T23:15:25.607Z,99.20
2018-09-29T23:17:55.069Z,99.30
2018-09-29T23:20:24.275Z,99.20
2018-09-29T23:22:53.502Z,99.40
2018-09-29T23:25:22.715Z,99.00
2018-09-29T23:27:51.990Z,99.40
2018-09-29T23:30:21.177Z,99.70
2018-09-29T23:32:50.395Z,99.70
2018-09-29T23:35:19.589Z,99.60
2018-09-29T23:37:48.828Z,99.50
2018-09-29T23:40:18.013Z,99.40
2018-09-29T23:42:52.686Z,99.10
2018-09-29T23:45:21.926Z,98.80
2018-09-29T23:47:51.133Z,99.00
2018-09-29T23:50:20.332Z,99.30
2018-09-29T23:52:49.551Z,99.10
2018-09-29T23:55:18.711Z,99.20
2018-09-29T23:57:47.906Z,99.50
